AirNav   Everest Fuels
 
 951 users online  

KNRS Imperial Beach Naval Outlying Field (Ream Field)
Imperial Beach, California, USA

GOING TO IMPERIAL BEACH?


FAA INFORMATION EFFECTIVE 06 OCTOBER 2022

Location

FAA Identifier: NRS
Lat/Long: 32-33-58.1746N 117-06-48.6918W
32-33.969577N 117-06.811530W
32.5661596,-117.1135255
(estimated)
Elevation: 23.2 ft. / 7.1 m (surveyed)
Variation: 11E (2020)
From city: 1 mile S of IMPERIAL BEACH, CA
Time zone: UTC -7 (UTC -8 during Standard Time)
Zip code: 91932

Airport Operations

Airport use: Private use. Permission required prior to landing
Activation date: 02/1944
Control tower: yes
ARTCC: LOS ANGELES CENTER
FSS: SAN DIEGO FLIGHT SERVICE STATION
FSS-SAN DIEGO SAN-NOTAM NRS
NOTAMs facility: SAN (NOTAM-D service available)
Attendance: 
OPR 1600-0630Z MON-THU (1500-0600Z DT) AND 1600-0200Z++ FRI. CLSD FR 0200Z++ DAY PRIOR TIL 1600Z++ DAY FLW GOVT HOL; EXC PRE-COORD FLT OF OPR NECESSITY. CTC NOLF ATC DSN 577-9414/9415 FOR OPR INQUIRIES.
Segmented circle: no
Lights: AVBL ONLY DURING HRS OF OPERATION.
Beacon: white-white-green (lighted military airport)
Operates sunset to sunrise.

Airport Communications

ATIS: 276.2
WX ASOS: PHONE 619-437-9890
IMPERIAL BEACH GROUND: 285.575 [1600-0630Z MON-THU (1500-0600Z DT) AND 1600-0200Z++ FRI. CLSD FR 0200Z++ DAY PRIOR TIL 1600Z++ DAY FLW GOVT HOL.]
IMPERIAL BEACH TOWER: 120.65 239.25 [1600-0630Z MON-THU (1500-0600Z DT) AND 1600-0200Z++ FRI. CLSD FR 0200Z++ DAY PRIOR TIL 1600Z++ DAY FLW GOVT HOL.]
SOCAL APPROACH: 125.15
SOCAL DEPARTURE: 125.15
CLASS B: 125.15 ;110-224 SAN 17,000 FT& BLW
EMERG: 243.0
RADAR: 318.8
WX ASOS at SDM (7 nm E): 132.35 (619-661-8297)
WX ASOS at SAN (11 nm N): PHONE 619-296-8934
WX ASOS at MYF (15 nm N): 126.9 (858-576-4337)
WX AWOS-3P at SEE (17 nm NE): 125.45 (619-449-1228)
  • ATCT/GCA/ATIS OPR PUBLISHED HRS EXC PRE-COORD FLT OF OPR NECESSITY.
  • ILS/RADAR - RADAR - SEE TERMINAL FLIP FOR RADAR MINIMA.

Nearby radio navigation aids

VOR radial/distance  VOR name  Freq  Var
PGYr235/7.3POGGI VORTAC116.4514E
TIJr269/8.3TIJUANA VOR/DME116.5012E
MZBr141/14.1MISSION BAY VORTAC117.8015E

Airport Services

Runway Information

Runway 8/26

Dimensions: 2241 x 151 ft. / 683 x 46 m
Surface: concrete
Weight bearing capacity: 
PCN 6 /R/C/W/T
RUNWAY 8  RUNWAY 26
Latitude: 32-34.018148N32-33.921508N
Longitude: 117-06.828138W117-06.406907W
Elevation: 23.2 ft.20.9 ft.
Traffic pattern: leftleft
Touchdown point: yes, no lightsyes, no lights

Runway 9/27

Dimensions: 4998 x 336 ft. / 1523 x 102 m
Surface: PEM
Weight bearing capacity: 
PCN 8 /F/A/W/T
Runway edge lights: high intensity
RUNWAY 9  RUNWAY 27
Latitude: 32-34.076963N32-33.861963N
Longitude: 117-07.368352W117-06.428678W
Elevation: 7.8 ft.19.5 ft.
Traffic pattern: leftleft
Touchdown point: yes, no lightsyes, no lights

Airport Ownership and Management from official FAA records

Ownership: U.S. Navy
Owner: US NAVY
OCEANOGRAPHIC OFC - CODE 3142
WASHINGTON, DC 20373

Additional Remarks

RSTD - OFFL BUS ONLY - PPR F/W AND NON-TENANT ACFT, CTC NASNI ODO DSN 735-8233/8234, C619-545-8233/8234. NORTH ISLAND TENANT ACFT AND COAST GUARD HAVE PRIORITY FOR LCL PAT OPR.
CAUTION: EXTV COPTER TRNG.
MISC: RWY 08-26 AVBL FOR DAY AND NGT COPTER USE ONLY (NGT AND SVFR USE AT PILOTS OWN RISK).
FUEL: J5 (AVAILABLE 1100-2100 MON-THU; 1000-1800 FRI).
FOR CD WHEN ATCT CLSD CTC SOCAL APCH AT 800-448-3724.

Instrument Procedures

NOTE: All procedures below are presented as PDF files. If you need a reader for these files, you should download the free Adobe Reader.

NOT FOR NAVIGATION. Please procure official charts for flight.
FAA instrument procedures published for use from 6 October 2022 at 0901Z to 3 November 2022 at 0900Z.

 
IAPs - Instrument Approach Procedures
COPTER TACAN RWY 27 **CHANGED**   download (118KB)
NOTE: Special Take-Off Minimums/Departure Procedures apply   download (174KB)

Other nearby airports with instrument procedures:

KSDM - Brown Field Municipal Airport (7 nm E)
KNZY - North Island Naval Air Station (Halsey Field) Airport (9 nm NW)
KSAN - San Diego International Airport (11 nm N)
KMYF - Montgomery-Gibbs Executive Airport (15 nm N)
KSEE - Gillespie Field Airport (17 nm NE)
KNKX - Miramar MCAS (Joe Foss Field) Airport (18 nm N)
 
Loc | Ops | Rwys | IFR | FBO | Links
Com | Nav | Svcs | Stats | Notes
Area around KNRS (Imperial Beach Naval Outlying Field (Ream Field))
 
Road maps at: MapQuest Bing Google
 
Aerial photo
WARNING: Photo may not be current or correct
Aerial photo of KNRS (Imperial Beach Naval Outlying Field (Ream Field))
Photo taken 02-Feb-2016
looking south.

Do you have a better or more recent aerial photo of Imperial Beach Naval Outlying Field (Ream Field) that you would like to share? If so, please send us your photo.

 
Sectional chart

 
Airport distance calculator
Flying to Imperial Beach Naval Outlying Field (Ream Field)? Find the distance to fly.

From to KNRS

Sunrise and sunset
Times for 06-Oct-2022
 Local
(UTC-7)
 Zulu
(UTC)
Morning civil twilight06:2213:22
Sunrise06:4713:47
Sunset18:2601:26
Evening civil twilight18:5101:51

Current date and time
Zulu (UTC)  07-Oct-2022 03:37:16
Local (UTC-7)  06-Oct-2022 20:37:16
 
METAR
KNRS 070253Z 25011G19KT 10SM BKN012 BKN045 BKN080 19/17 A3002 RMK AO2 SLP166 OCNL LTGIC DSNT SE CB DSNT SE T01890167 50016
KSDM 
6nm E 
070302Z AUTO 32006KT 8SM FEW008 18/16 A3002 RMK AO2 T01780161
MMTJ 
8nm E 
070240Z 16009KT 4SM BKN040 19/18 A3003 RMK SLP179 52010 955 8/500 HZY RAE35
KNZY 
10nm NW 
070306Z 19004KT 7SM FEW013 SCT065 19/17 A3002 RMK AO2 T01890167
KSAN 
11nm N 
070251Z 23007KT 10SM SCT013 SCT050 BKN150 20/16 A3004 RMK AO2 SLP171 T02000161 51015
KMYF 
15nm N 
070305Z 25007KT 8SM SCT010 19/16 A3002 RMK AO2 T01890161
KSEE 
17nm NE 
070247Z 23003KT 7SM HZ SCT022 20/16 A3002
KNKX 
18nm N 
070315Z 00000KT 10SM BKN011 18/16 A3004 RMK AO2 PRESRR T01830161
TAF
MMTJ 
8nm E 
062353Z 0700/0806 30006KT 6SM HZ SCT015 TX23/0721Z TN18/0712Z BECMG 0701/0702 OVC010 FM070400 30005KT 3SM BR HZ OVC006 BECMG 0708/0709 1SM BR HZ OVC004 TEMPO 0710/0714 1/2SM FG VV002 FM071500 26005KT 5SM HZ SCT010 BECMG 0720/0721 25006KT 6SM HZ FM080200 30005KT 6SM HZ SCT015
KNZY 
10nm NW 
0623/0723 18006KT 9000 HZ OVC012 QNH2994INS FM070200 VRB04KT 8000 BR OVC010 QNH2996INS TEMPO 0708/0714 4800 BR OVC005 BECMG 0716/0718 28006KT 9999 BKN012 QNH2998INS T17/0712Z T23/0720Z FS30160
KSAN 
11nm N 
062024Z 0620/0724 20005KT 6SM BR OVC012 FM070900 24003KT 5SM BR OVC008 FM071300 00000KT 4SM BR OVC006 FM071630 25004KT P6SM OVC008 FM071800 26005KT P6SM BKN011 TEMPO 0721/0724 SCT012
KNKX 
18nm N 
0621/0721 28007KT 9999 BKN015 BKN100 BKN250 QNH2996INS TEMPO 0621/0700 SCT015 SCT100 BKN250 FM070030 VRB05KT 9999 BKN010 BKN100 QNH2998INS BECMG 0704/0706 VRB05KT 9000 BR BKN007 QNH3002INS TEMPO 0706/0708 2600 BR OVC003 FM070830 VRB05KT 6000 BBR BKN005 QNH3002INS TEMPO 0712/0715 2000 BR OVC002 BECMG 0715/0717 VRB06KT 9999 NSW BKN010 QNH3001INS FM072030 28008KT 9999 SCT010 BKN020 QNH3000INS T17/0714Z T25/0721Z
NOTAMs
Click for the latest NOTAMs
NOTAMs are issued by the DoD/FAA and will open in a separate window not controlled by AirNav.

 

 
 

Would you like to see your business listed on this page?

 If your business provides an interesting product or service to pilots, flight crews, aircraft, or users of the Imperial Beach Naval Outlying Field (Ream Field), you should consider listing it here.  To start the listing process, click on the button below
 
Add a business
 

Other Pages about Imperial Beach Naval Outlying Field (Ream Field)

Update a link
 
Copyright © AirNav, LLC. All rights reserved. Privacy Policy  Contact